createdAt,value
2019-02-06T00:01:18.139Z,28.20
2019-02-06T00:03:44.870Z,25.62
2019-02-06T00:06:11.710Z,27.50
2019-02-06T00:08:38.554Z,23.77
2019-02-06T00:11:05.394Z,29.42
2019-02-06T00:13:32.258Z,25.08
2019-02-06T00:15:59.066Z,25.10
2019-02-06T00:18:25.907Z,25.37
2019-02-06T00:20:52.742Z,22.80
2019-02-06T00:23:19.566Z,25.57
2019-02-06T00:25:46.382Z,23.55
2019-02-06T00:28:13.262Z,26.25
2019-02-06T00:30:40.088Z,25.40
2019-02-06T00:33:06.935Z,27.93
2019-02-06T00:35:33.759Z,27.73
2019-02-06T00:38:00.658Z,29.67
2019-02-06T00:40:27.527Z,27.70
2019-02-06T00:42:54.358Z,23.33
2019-02-06T00:45:21.197Z,25.72
2019-02-06T00:47:48.014Z,31.00
2019-02-06T00:50:14.869Z,30.63
2019-02-06T00:52:41.694Z,28.85
2019-02-06T00:55:08.813Z,30.75
2019-02-06T00:57:35.633Z,26.13
2019-02-06T01:00:02.657Z,27.82
2019-02-06T01:02:29.478Z,25.03
2019-02-06T01:04:56.313Z,24.25
2019-02-06T01:07:23.202Z,25.80
2019-02-06T01:09:50.026Z,22.80
2019-02-06T01:12:17.070Z,24.87
2019-02-06T01:14:43.901Z,27.00
2019-02-06T01:17:10.774Z,28.00
2019-02-06T01:19:37.599Z,26.37
2019-02-06T01:22:04.471Z,25.08
2019-02-06T01:24:31.289Z,24.65
2019-02-06T01:26:58.139Z,25.30
2019-02-06T01:29:24.958Z,25.97
2019-02-06T01:31:51.803Z,23.90
2019-02-06T01:34:18.627Z,22.50
2019-02-06T01:36:45.464Z,20.23
2019-02-06T01:39:12.955Z,24.50
2019-02-06T01:41:39.833Z,23.85
2019-02-06T01:44:06.665Z,24.60
2019-02-06T01:46:33.574Z,21.90
2019-02-06T01:49:00.410Z,27.58
2019-02-06T01:51:27.265Z,28.80
2019-02-06T01:53:54.114Z,24.20
2019-02-06T01:56:20.958Z,25.60
2019-02-06T01:58:47.794Z,26.83
2019-02-06T02:01:14.642Z,24.15
2019-02-06T02:03:41.490Z,24.25
2019-02-06T02:06:08.334Z,33.60
2019-02-06T02:08:36.157Z,25.48
2019-02-06T02:11:03.004Z,24.32
2019-02-06T02:13:29.825Z,25.13
2019-02-06T02:15:56.698Z,23.75
2019-02-06T02:18:23.553Z,23.73
2019-02-06T02:20:50.378Z,24.27
2019-02-06T02:23:17.244Z,27.45
2019-02-06T02:25:44.070Z,27.17
2019-02-06T02:28:10.919Z,26.70
2019-02-06T02:30:41.681Z,25.60
2019-02-06T02:33:08.521Z,23.83
2019-02-06T02:35:35.370Z,24.87
2019-02-06T02:38:02.235Z,24.23
2019-02-06T02:40:29.053Z,25.27
2019-02-06T02:42:55.867Z,26.48
2019-02-06T02:45:22.720Z,26.62
2019-02-06T02:47:49.542Z,25.70
2019-02-06T02:50:16.373Z,24.92
2019-02-06T02:52:43.300Z,27.15
2019-02-06T02:55:10.116Z,25.37
2019-02-06T02:57:36.946Z,25.65
2019-02-06T03:00:06.890Z,25.00
2019-02-06T03:02:42.392Z,25.73
2019-02-06T03:05:13.090Z,24.25
2019-02-06T03:07:39.797Z,23.45
2019-02-06T03:10:07.390Z,23.27
2019-02-06T03:12:34.218Z,24.77
2019-02-06T03:15:01.216Z,22.53
2019-02-06T03:17:27.910Z,19.70
2019-02-06T03:19:54.758Z,20.72
2019-02-06T03:22:21.577Z,19.77
2019-02-06T03:24:48.455Z,22.67
2019-02-06T03:27:15.294Z,19.60
2019-02-06T03:29:42.246Z,22.50
2019-02-06T03:32:09.076Z,21.65
2019-02-06T03:34:35.924Z,21.13
2019-02-06T03:37:02.739Z,19.65
2019-02-06T03:39:29.635Z,20.00
2019-02-06T03:41:56.463Z,21.57
2019-02-06T03:44:23.281Z,21.75
2019-02-06T03:46:50.122Z,24.60
2019-02-06T03:49:16.942Z,21.47
2019-02-06T03:51:43.781Z,23.05
2019-02-06T03:54:10.603Z,22.80
2019-02-06T03:56:37.442Z,19.90
2019-02-06T03:59:04.260Z,21.42
2019-02-06T04:01:31.112Z,22.25
2019-02-06T04:03:57.935Z,19.60
2019-02-06T04:06:24.807Z,23.62
2019-02-06T04:08:51.986Z,22.30
2019-02-06T04:11:18.862Z,20.10
2019-02-06T04:13:45.706Z,21.52
2019-02-06T04:16:12.552Z,19.80
2019-02-06T04:18:39.406Z,18.53
2019-02-06T04:21:06.242Z,20.02
2019-02-06T04:23:33.080Z,21.40
2019-02-06T04:25:59.928Z,19.07
2019-02-06T04:28:26.743Z,16.77
2019-02-06T04:30:53.599Z,17.77
2019-02-06T04:33:20.422Z,18.60
2019-02-06T04:35:47.253Z,18.50
2019-02-06T04:38:14.090Z,18.12
2019-02-06T04:40:40.962Z,18.87
2019-02-06T04:43:07.778Z,20.65
2019-02-06T04:45:34.631Z,22.00
2019-02-06T04:48:01.450Z,18.27
2019-02-06T04:50:28.285Z,21.85
2019-02-06T04:52:55.117Z,20.30
2019-02-06T04:55:21.955Z,19.33
2019-02-06T04:57:48.782Z,19.37
2019-02-06T05:00:17.984Z,19.80
2019-02-06T05:02:44.833Z,19.30
2019-02-06T05:05:11.650Z,18.98
2019-02-06T05:07:38.497Z,22.02
2019-02-06T05:10:07.070Z,15.57
2019-02-06T05:12:33.926Z,18.80
2019-02-06T05:15:00.792Z,21.73
2019-02-06T05:17:27.703Z,26.43
2019-02-06T05:19:54.535Z,23.65
2019-02-06T05:22:21.507Z,25.23
2019-02-06T05:24:48.318Z,25.00
2019-02-06T05:27:15.175Z,23.90
2019-02-06T05:29:42.006Z,23.87
2019-02-06T05:32:08.862Z,23.70
2019-02-06T05:34:35.710Z,21.07
2019-02-06T05:37:02.546Z,20.25
2019-02-06T05:39:29.374Z,18.73
2019-02-06T05:41:56.233Z,20.30
2019-02-06T05:44:23.054Z,22.32
2019-02-06T05:46:50.001Z,24.10
2019-02-06T05:49:16.744Z,22.80
2019-02-06T05:51:43.571Z,24.70
2019-02-06T05:54:10.430Z,25.83
2019-02-06T05:56:37.398Z,25.80
2019-02-06T05:59:04.231Z,24.30
2019-02-06T06:01:31.074Z,21.50
2019-02-06T06:03:57.888Z,20.97
2019-02-06T06:06:24.748Z,20.90
2019-02-06T06:08:51.594Z,17.87
2019-02-06T06:11:18.483Z,20.08
2019-02-06T06:13:45.282Z,19.55
2019-02-06T06:16:12.122Z,22.83
2019-02-06T06:18:39.095Z,18.80
2019-02-06T06:21:05.910Z,19.80
2019-02-06T06:23:32.746Z,21.60
2019-02-06T06:25:59.573Z,19.92
2019-02-06T06:28:26.411Z,21.20
2019-02-06T06:30:53.266Z,24.13
2019-02-06T06:33:20.126Z,26.90
2019-02-06T06:35:46.978Z,24.95
2019-02-06T06:38:13.787Z,19.00
2019-02-06T06:40:40.602Z,29.90
2019-02-06T06:43:07.463Z,26.95
2019-02-06T06:45:34.270Z,30.33
2019-02-06T06:48:01.111Z,35.73
2019-02-06T06:50:28.007Z,36.77
2019-02-06T06:52:54.869Z,35.40
2019-02-06T06:55:21.690Z,36.95
2019-02-06T06:57:48.757Z,36.70
2019-02-06T07:00:18.927Z,33.73
2019-02-06T07:02:45.778Z,32.80
2019-02-06T07:05:12.661Z,32.73
2019-02-06T07:07:39.514Z,32.90
2019-02-06T07:10:06.543Z,36.35
2019-02-06T07:12:33.404Z,35.65
2019-02-06T07:15:00.413Z,36.10
2019-02-06T07:17:27.077Z,36.20
2019-02-06T07:19:53.914Z,36.58
2019-02-06T07:22:20.772Z,35.83
2019-02-06T07:24:47.602Z,41.92
2019-02-06T07:27:14.470Z,43.55
2019-02-06T07:29:41.309Z,35.87
2019-02-06T07:32:08.178Z,39.13
2019-02-06T07:34:35.042Z,47.70
2019-02-06T07:37:01.866Z,42.60
2019-02-06T07:39:28.719Z,49.50
2019-02-06T07:41:55.553Z,51.37
2019-02-06T07:44:22.474Z,51.47
2019-02-06T07:46:49.312Z,55.75
2019-02-06T07:49:16.229Z,55.30
2019-02-06T07:51:43.082Z,61.53
2019-02-06T07:54:09.919Z,59.27
2019-02-06T07:56:36.738Z,60.65
2019-02-06T07:59:03.706Z,59.08
2019-02-06T08:01:30.533Z,53.90
2019-02-06T08:03:57.374Z,59.75
2019-02-06T08:06:24.206Z,63.13
2019-02-06T08:08:51.057Z,57.90
2019-02-06T08:11:18.010Z,63.10
2019-02-06T08:13:44.862Z,64.03
2019-02-06T08:16:11.718Z,62.93
2019-02-06T08:18:38.754Z,66.28
2019-02-06T08:21:05.582Z,70.37
2019-02-06T08:23:32.444Z,60.07
2019-02-06T08:25:59.290Z,68.65
2019-02-06T08:28:26.153Z,69.77
2019-02-06T08:30:53.002Z,63.93
2019-02-06T08:33:19.909Z,69.00
2019-02-06T08:35:46.732Z,63.68
2019-02-06T08:38:13.590Z,63.53
2019-02-06T08:40:40.427Z,67.45
2019-02-06T08:43:07.273Z,67.85
2019-02-06T08:45:34.102Z,60.40
2019-02-06T08:48:00.942Z,65.78
2019-02-06T08:50:27.799Z,67.47
2019-02-06T08:52:54.621Z,60.37
2019-02-06T08:55:23.382Z,63.78
2019-02-06T08:57:50.214Z,62.43
2019-02-06T09:00:19.994Z,52.07
2019-02-06T09:02:46.851Z,59.20
2019-02-06T09:05:13.698Z,63.73
2019-02-06T09:07:40.526Z,59.73
2019-02-06T09:10:09.699Z,63.25
2019-02-06T09:12:36.554Z,54.00
2019-02-06T09:15:03.978Z,61.08
2019-02-06T09:17:30.838Z,60.48
2019-02-06T09:19:57.698Z,53.50
2019-02-06T09:22:24.542Z,61.42
2019-02-06T09:24:51.385Z,58.43
2019-02-06T09:27:18.210Z,55.92
2019-02-06T09:29:45.064Z,62.73
2019-02-06T09:32:11.894Z,59.30
2019-02-06T09:34:38.752Z,55.43
2019-02-06T09:37:05.576Z,55.30
2019-02-06T09:39:32.431Z,49.50
2019-02-06T09:41:59.279Z,54.08
2019-02-06T09:44:26.130Z,55.70
2019-02-06T09:46:52.959Z,52.38
2019-02-06T09:49:19.802Z,55.43
2019-02-06T09:51:46.629Z,50.53
2019-02-06T09:54:13.478Z,53.68
2019-02-06T09:56:40.313Z,55.17
2019-02-06T09:59:07.178Z,50.80
2019-02-06T10:01:34.013Z,52.47
2019-02-06T10:04:00.853Z,53.38
2019-02-06T10:06:27.690Z,48.20
2019-02-06T10:08:54.542Z,47.13
2019-02-06T10:11:21.374Z,53.30
2019-02-06T10:13:48.202Z,54.13
2019-02-06T10:16:15.161Z,51.20
2019-02-06T10:18:41.993Z,47.10
2019-02-06T10:21:08.993Z,53.30
2019-02-06T10:23:35.830Z,54.07
2019-02-06T10:26:02.679Z,48.00
2019-02-06T10:28:29.509Z,47.45
2019-02-06T10:30:56.353Z,53.00
2019-02-06T10:33:23.182Z,51.77
2019-02-06T10:35:52.255Z,51.15
2019-02-06T10:38:16.851Z,49.40
2019-02-06T10:40:43.694Z,49.95
2019-02-06T10:43:10.534Z,54.80
2019-02-06T10:45:37.390Z,44.80
2019-02-06T10:48:04.618Z,52.50
2019-02-06T10:50:33.482Z,47.37
2019-02-06T10:53:00.328Z,47.60
2019-02-06T10:55:27.186Z,47.50
2019-02-06T10:57:54.013Z,46.87
2019-02-06T11:00:24.630Z,46.27
2019-02-06T11:02:51.474Z,45.30
2019-02-06T11:05:18.330Z,42.50
2019-02-06T11:07:46.206Z,40.90
2019-02-06T11:10:12.062Z,48.00
2019-02-06T11:12:38.903Z,41.83
2019-02-06T11:15:06.526Z,44.30
2019-02-06T11:17:33.371Z,44.90
2019-02-06T11:20:00.341Z,45.63
2019-02-06T11:22:27.078Z,46.20
2019-02-06T11:24:53.933Z,43.53
2019-02-06T11:27:20.767Z,41.20
2019-02-06T11:29:48.527Z,42.57
2019-02-06T11:32:14.503Z,45.97
2019-02-06T11:34:41.358Z,43.63
2019-02-06T11:37:08.206Z,42.03
2019-02-06T11:39:35.074Z,43.33
2019-02-06T11:42:01.911Z,43.20
2019-02-06T11:44:28.766Z,42.20
2019-02-06T11:46:55.691Z,41.20
2019-02-06T11:49:25.917Z,41.93
2019-02-06T11:51:52.755Z,46.03
2019-02-06T11:54:19.619Z,47.07
2019-02-06T11:56:46.468Z,43.23
2019-02-06T11:59:13.411Z,42.43
2019-02-06T12:01:44.003Z,41.13
2019-02-06T12:04:10.862Z,40.40
2019-02-06T12:06:37.750Z,47.07
2019-02-06T12:09:10.023Z,40.07
2019-02-06T12:11:36.841Z,45.90
2019-02-06T12:14:03.698Z,40.93
2019-02-06T12:16:30.633Z,45.67
2019-02-06T12:18:57.434Z,41.77
2019-02-06T12:21:24.298Z,47.53
2019-02-06T12:23:51.398Z,47.10
2019-02-06T12:26:18.278Z,38.83
2019-02-06T12:28:45.109Z,39.77
2019-02-06T12:31:11.957Z,40.80
2019-02-06T12:33:38.798Z,41.70
2019-02-06T12:36:05.670Z,37.73
2019-02-06T12:38:32.514Z,43.03
2019-02-06T12:40:59.370Z,41.73
2019-02-06T12:43:26.198Z,42.87
2019-02-06T12:45:53.052Z,43.10
2019-02-06T12:48:19.913Z,38.73
2019-02-06T12:50:47.645Z,44.40
2019-02-06T12:53:14.495Z,42.10
2019-02-06T12:55:41.383Z,42.20
2019-02-06T12:58:08.238Z,38.13
2019-02-06T13:00:35.761Z,41.60
2019-02-06T13:03:02.649Z,45.40
2019-02-06T13:05:29.803Z,42.50
2019-02-06T13:07:56.651Z,42.27
2019-02-06T13:10:33.532Z,40.37
2019-02-06T13:12:50.392Z,44.80
2019-02-06T13:15:17.263Z,42.77
2019-02-06T13:17:44.130Z,42.63
2019-02-06T13:20:13.722Z,41.53
2019-02-06T13:22:40.581Z,37.60
2019-02-06T13:25:07.925Z,40.97
2019-02-06T13:27:34.779Z,39.93
2019-02-06T13:30:01.655Z,40.53
2019-02-06T13:32:28.494Z,38.80
2019-02-06T13:34:55.370Z,42.77
2019-02-06T13:37:22.194Z,42.77
2019-02-06T13:39:49.062Z,41.80
2019-02-06T13:42:15.909Z,40.40
2019-02-06T13:44:42.775Z,37.43
2019-02-06T13:47:09.590Z,40.20
2019-02-06T13:49:36.461Z,40.27
2019-02-06T13:52:03.322Z,39.97
2019-02-06T13:54:30.226Z,34.87
2019-02-06T13:56:57.214Z,40.40
2019-02-06T13:59:23.934Z,36.30
2019-02-06T14:01:50.822Z,43.13
2019-02-06T14:04:17.674Z,37.80
2019-02-06T14:06:44.545Z,37.03
2019-02-06T14:09:22.233Z,39.63
2019-02-06T14:11:41.298Z,39.58
2019-02-06T14:14:08.147Z,31.90
2019-02-06T14:16:35.007Z,35.67
2019-02-06T14:19:01.858Z,38.60
2019-02-06T14:21:28.818Z,35.93
2019-02-06T14:24:03.254Z,36.40
2019-02-06T14:26:39.507Z,36.97
2019-02-06T14:29:32.130Z,33.33
2019-02-06T14:32:15.567Z,35.17
2019-02-06T14:34:45.378Z,31.20
2019-02-06T14:37:22.945Z,38.80
2019-02-06T14:40:00.477Z,37.90
2019-02-06T14:42:56.755Z,35.50
2019-02-06T14:45:42.751Z,33.63
2019-02-06T14:48:37.022Z,33.98
2019-02-06T14:51:36.927Z,37.17
2019-02-06T14:54:12.959Z,33.53
2019-02-06T14:56:56.250Z,35.43
2019-02-06T14:59:52.207Z,28.95
2019-02-06T15:03:01.066Z,33.93
2019-02-06T15:06:13.106Z,31.42
2019-02-06T15:09:09.268Z,30.77
2019-02-06T15:11:44.354Z,32.63
2019-02-06T15:14:45.978Z,30.07
2019-02-06T15:17:40.342Z,33.27
2019-02-06T15:20:18.655Z,33.00
2019-02-06T15:23:15.888Z,38.03
2019-02-06T15:26:02.019Z,30.13
2019-02-06T15:28:57.931Z,28.40
2019-02-06T15:31:50.061Z,32.20
2019-02-06T15:34:41.737Z,30.80
2019-02-06T15:37:35.810Z,27.10
2019-02-06T15:40:21.449Z,32.40
2019-02-06T15:43:04.802Z,32.63
2019-02-06T15:45:40.696Z,28.70
2019-02-06T15:48:18.734Z,29.93
2019-02-06T15:51:13.526Z,31.73
2019-02-06T15:53:58.439Z,29.50
2019-02-06T15:56:48.822Z,31.80
2019-02-06T15:59:26.499Z,30.30
2019-02-06T16:02:07.098Z,33.67
2019-02-06T16:05:14.630Z,31.50
2019-02-06T16:08:06.785Z,32.23
2019-02-06T16:10:45.358Z,31.97
2019-02-06T16:13:27.301Z,27.70
2019-02-06T16:16:16.832Z,28.80
2019-02-06T16:19:10.123Z,26.07
2019-02-06T16:21:53.182Z,28.30
2019-02-06T16:24:46.942Z,30.40
2019-02-06T16:27:27.446Z,29.10
2019-02-06T16:30:21.618Z,26.10
2019-02-06T16:33:14.654Z,26.87
2019-02-06T16:36:08.418Z,30.47
2019-02-06T16:38:47.881Z,30.30
2019-02-06T16:41:26.346Z,26.00
2019-02-06T16:44:19.526Z,24.33
2019-02-06T16:47:23.706Z,30.30
2019-02-06T16:50:02.230Z,30.83
2019-02-06T16:52:57.078Z,33.70
2019-02-06T16:55:49.730Z,25.27
2019-02-06T16:58:27.266Z,32.23
2019-02-06T17:01:19.153Z,30.47
2019-02-06T17:04:05.754Z,35.33
2019-02-06T17:06:44.873Z,29.10
2019-02-06T17:09:45.610Z,33.50
2019-02-06T17:12:24.146Z,33.83
2019-02-06T17:15:22.066Z,34.58
2019-02-06T17:18:22.254Z,28.63
2019-02-06T17:21:18.574Z,30.30
2019-02-06T17:24:02.550Z,29.70
2019-02-06T17:26:43.678Z,30.00
2019-02-06T17:29:28.824Z,30.00
2019-02-06T17:32:09.510Z,27.53
2019-02-06T17:34:53.670Z,28.17
2019-02-06T17:38:03.569Z,29.80
2019-02-06T17:40:45.861Z,25.10
2019-02-06T17:43:24.186Z,28.50
2019-02-06T17:46:04.306Z,27.43
2019-02-06T17:48:58.079Z,22.67
2019-02-06T17:51:39.377Z,22.87
2019-02-06T17:54:31.797Z,29.77
2019-02-06T17:56:58.683Z,35.07
2019-02-06T17:59:25.661Z,33.73
2019-02-06T18:01:53.649Z,37.87
2019-02-06T18:04:24.078Z,55.07
2019-02-06T18:06:50.923Z,38.50
2019-02-06T18:09:18.117Z,38.53
2019-02-06T18:11:46.235Z,32.77
2019-02-06T18:14:13.087Z,32.67
2019-02-06T18:16:39.931Z,26.85
2019-02-06T18:19:06.771Z,30.97
2019-02-06T18:21:33.621Z,30.35
2019-02-06T18:24:00.451Z,29.60
2019-02-06T18:26:27.309Z,31.13
2019-02-06T18:28:54.135Z,32.58
2019-02-06T18:31:20.990Z,32.00
2019-02-06T18:33:47.826Z,34.95
2019-02-06T18:36:14.673Z,31.60
2019-02-06T18:38:46.706Z,48.63
2019-02-06T18:41:08.398Z,41.20
2019-02-06T18:43:35.235Z,57.48
2019-02-06T18:46:02.094Z,62.10
2019-02-06T18:48:28.945Z,38.98
2019-02-06T18:50:55.795Z,34.80
2019-02-06T18:53:22.628Z,34.50
2019-02-06T18:55:51.218Z,33.90
2019-02-06T18:58:16.410Z,42.23
2019-02-06T19:00:43.282Z,33.88
2019-02-06T19:03:15.368Z,42.40
2019-02-06T19:05:42.424Z,43.95
2019-02-06T19:08:09.284Z,45.97
2019-02-06T19:10:36.183Z,42.43
2019-02-06T19:13:03.031Z,38.13
2019-02-06T19:15:29.905Z,40.67
2019-02-06T19:17:56.730Z,45.63
2019-02-06T19:20:23.639Z,49.77
2019-02-06T19:22:50.501Z,46.50
2019-02-06T19:25:17.375Z,34.63
2019-02-06T19:27:44.244Z,42.73
2019-02-06T19:30:16.591Z,41.07
2019-02-06T19:32:44.531Z,42.40
2019-02-06T19:35:10.295Z,42.80
2019-02-06T19:37:37.160Z,39.55
2019-02-06T19:40:04.395Z,40.10
2019-02-06T19:42:31.289Z,37.60
2019-02-06T19:44:58.122Z,41.83
2019-02-06T19:47:28.619Z,40.83
2019-02-06T19:49:51.811Z,47.90
2019-02-06T19:52:18.665Z,46.58
2019-02-06T19:54:46.213Z,42.43
2019-02-06T19:57:12.490Z,47.10
2019-02-06T19:59:39.327Z,51.65
2019-02-06T20:02:06.182Z,44.00
2019-02-06T20:04:33.084Z,50.98
2019-02-06T20:06:59.899Z,47.83
2019-02-06T20:09:26.738Z,42.70
2019-02-06T20:11:53.617Z,41.93
2019-02-06T20:14:20.462Z,47.08
2019-02-06T20:16:47.383Z,68.30
2019-02-06T20:19:14.258Z,66.17
2019-02-06T20:21:41.246Z,54.33
2019-02-06T20:24:08.087Z,45.37
2019-02-06T20:26:35.239Z,54.60
2019-02-06T20:29:02.580Z,56.80
2019-02-06T20:31:29.438Z,52.50
2019-02-06T20:33:56.587Z,53.13
2019-02-06T20:36:23.469Z,51.47
2019-02-06T20:38:51.956Z,47.58
2019-02-06T20:41:17.190Z,46.47
2019-02-06T20:43:44.040Z,44.58
2019-02-06T20:46:11.003Z,43.78
2019-02-06T20:48:37.834Z,53.60
2019-02-06T20:51:04.730Z,61.02
2019-02-06T20:53:31.570Z,48.50
2019-02-06T20:55:58.643Z,54.70
2019-02-06T20:58:25.527Z,47.67
2019-02-06T21:00:52.351Z,63.02
2019-02-06T21:03:19.201Z,60.98
2019-02-06T21:05:46.030Z,52.20
2019-02-06T21:08:12.887Z,55.80
2019-02-06T21:10:39.735Z,66.17
2019-02-06T21:13:06.713Z,60.60
2019-02-06T21:15:33.597Z,52.53
2019-02-06T21:18:00.447Z,49.42
2019-02-06T21:20:27.311Z,45.73
2019-02-06T21:22:54.170Z,56.68
2019-02-06T21:25:21.024Z,60.43
2019-02-06T21:27:48.757Z,58.52
2019-02-06T21:30:20.625Z,60.50
2019-02-06T21:32:48.300Z,54.00
2019-02-06T21:35:15.127Z,54.77
2019-02-06T21:37:41.983Z,61.23
2019-02-06T21:40:13.030Z,64.35
2019-02-06T21:42:39.874Z,68.55
2019-02-06T21:45:07.514Z,62.60
2019-02-06T21:47:34.363Z,54.50
2019-02-06T21:50:01.219Z,49.73
2019-02-06T21:52:28.076Z,46.13
2019-02-06T21:54:54.903Z,49.53
2019-02-06T21:57:21.758Z,44.73
2019-02-06T21:59:48.582Z,39.57
2019-02-06T22:02:15.491Z,44.38
2019-02-06T22:04:42.326Z,40.92
2019-02-06T22:07:09.179Z,41.73
2019-02-06T22:09:36.001Z,48.08
2019-02-06T22:12:02.842Z,41.70
2019-02-06T22:14:29.938Z,37.77
2019-02-06T22:16:56.790Z,43.75
2019-02-06T22:19:23.649Z,43.17
2019-02-06T22:21:50.478Z,43.17
2019-02-06T22:24:17.333Z,43.20
2019-02-06T22:26:44.150Z,44.13
2019-02-06T22:29:11.034Z,41.70
2019-02-06T22:31:37.862Z,42.43
2019-02-06T22:34:04.706Z,47.70
2019-02-06T22:36:31.530Z,44.10
2019-02-06T22:38:58.851Z,40.38
2019-02-06T22:41:25.678Z,41.83
2019-02-06T22:43:52.635Z,41.10
2019-02-06T22:46:19.466Z,40.52
2019-02-06T22:48:46.325Z,42.03
2019-02-06T22:51:13.156Z,42.60
2019-02-06T22:53:39.995Z,37.97
2019-02-06T22:56:06.814Z,42.90
2019-02-06T22:58:33.651Z,40.17
2019-02-06T23:01:23.910Z,39.73
2019-02-06T23:03:50.771Z,43.15
2019-02-06T23:06:17.594Z,40.88
2019-02-06T23:08:44.443Z,39.53
2019-02-06T23:11:11.281Z,39.00
2019-02-06T23:13:38.146Z,46.92
2019-02-06T23:16:04.992Z,38.93
2019-02-06T23:18:31.842Z,44.80
2019-02-06T23:20:58.671Z,44.00
2019-02-06T23:23:25.513Z,40.23
2019-02-06T23:25:52.335Z,47.67
2019-02-06T23:28:19.180Z,51.27
2019-02-06T23:30:46.007Z,52.05
2019-02-06T23:33:12.849Z,50.80
2019-02-06T23:35:39.675Z,46.00
2019-02-06T23:38:06.521Z,50.12
2019-02-06T23:40:33.362Z,48.68
2019-02-06T23:43:00.210Z,39.90
2019-02-06T23:45:27.038Z,48.17
2019-02-06T23:47:53.875Z,62.93
2019-02-06T23:50:20.714Z,55.10
2019-02-06T23:52:47.541Z,62.83
2019-02-06T23:55:14.385Z,65.80
2019-02-06T23:57:41.214Z,56.97
